.
WxDataArchive / Data Records for 2008-02-02
2008-02-01 February 2008 2008-02-03

Data Records for Saturday, 02 February 2008

Time	Temp	Chill	HIndex	Humid	Dewpt	 Wind 	HiWind	WindDir	Rain 	Barom 
-----	----	-----	------	-----	-----	------	------	-------	-----	----- 
00:00	29.4	29.4	29.4	87	26.0	1	4	270	0.00	30.078 
00:05	29.4	29.4	29.4	86	25.7	2	5	248	0.00	30.079 
00:10	29.3	29.3	29.3	86	25.6	3	7	248	0.00	30.081 
00:15	29.3	29.3	29.3	85	25.4	2	7	270	0.00	30.083 
00:20	29.3	29.3	29.3	85	25.4	2	5	270	0.00	30.083 
00:25	29.1	29.1	29.1	85	25.2	1	4	248	0.00	30.085 
00:30	29.1	29.1	29.1	85	25.2	1	4	248	0.00	30.085 
00:35	29.1	29.1	29.1	85	25.2	1	4	248	0.00	30.088 
00:40	29.1	29.1	29.1	85	25.2	2	9	248	0.00	30.090 
00:45	29.0	29.0	29.0	85	25.1	3	9	248	0.00	30.094 
00:50	29.0	29.0	29.0	85	25.1	3	7	248	0.00	30.097 
00:55	29.0	29.0	29.0	85	25.1	3	9	248	0.00	30.097 
01:00	28.8	28.8	28.8	84	24.6	3	8	248	0.00	30.100 
01:05	28.7	28.7	28.7	84	24.5	3	10	248	0.00	30.098 
01:10	28.7	24.3	28.7	84	24.5	4	10	248	0.00	30.106 
01:15	28.5	28.5	28.5	84	24.3	3	6	248	0.00	30.107 
01:20	28.5	28.5	28.5	84	24.3	3	7	248	0.00	30.109 
01:25	28.4	28.4	28.4	84	24.2	3	10	270	0.00	30.112 
01:30	28.2	23.7	28.2	83	23.7	4	7	270	0.00	30.112 
01:35	28.1	28.1	28.1	83	23.6	3	10	248	0.00	30.113 
01:40	27.9	27.9	27.9	83	23.4	3	11	270	0.00	30.117 
01:45	27.8	23.2	27.8	82	23.0	4	9	270	0.00	30.118 
01:50	27.8	23.2	27.8	83	23.3	4	11	248	0.00	30.121 
01:55	27.6	27.6	27.6	83	23.1	3	8	248	0.00	30.126 
02:00	27.5	27.5	27.5	83	23.0	2	6	270	0.00	30.127 
02:05	27.5	22.9	27.5	83	23.0	4	10	248	0.00	30.126 
02:10	27.2	21.4	27.2	83	22.7	5	14	248	0.00	30.129 
02:15	27.0	22.3	27.0	83	22.5	4	12	270	0.00	30.130 
02:20	26.9	22.2	26.9	83	22.4	4	10	248	0.00	30.131 
02:25	26.7	22.0	26.7	83	22.2	4	12	270	0.00	30.134 
02:30	26.7	22.0	26.7	83	22.2	4	10	248	0.00	30.136 
02:35	26.6	26.6	26.6	83	22.1	2	6	248	0.00	30.134 
02:40	26.6	26.6	26.6	83	22.1	3	11	270	0.00	30.135 
02:45	26.6	26.6	26.6	84	22.4	2	5	270	0.00	30.136 
02:50	26.6	26.6	26.6	84	22.4	1	3	248	0.00	30.134 
02:55	26.6	26.6	26.6	84	22.4	2	4	248	0.00	30.137 
03:00	26.6	26.6	26.6	84	22.4	1	4	248	0.00	30.137 
03:05	26.6	26.6	26.6	84	22.4	1	3	248	0.00	30.143 
03:10	26.4	26.4	26.4	84	22.2	2	6	248	0.00	30.143 
03:15	26.4	26.4	26.4	84	22.2	3	10	248	0.00	30.143 
03:20	26.3	26.3	26.3	84	22.1	2	4	248	0.00	30.141 
03:25	26.3	26.3	26.3	84	22.1	2	10	270	0.00	30.142 
03:30	26.3	26.3	26.3	84	22.1	2	4	248	0.00	30.145 
03:35	26.1	26.1	26.1	84	21.9	2	6	248	0.00	30.146 
03:40	26.1	26.1	26.1	84	21.9	2	4	270	0.00	30.144 
03:45	26.1	26.1	26.1	84	21.9	3	7	248	0.00	30.145 
03:50	26.1	26.1	26.1	84	21.9	2	7	248	0.00	30.147 
03:55	26.0	26.0	26.0	84	21.8	3	7	270	0.00	30.149 
04:00	26.0	26.0	26.0	84	21.8	3	9	270	0.00	30.150 
04:05	26.0	21.1	26.0	84	21.8	4	9	248	0.00	30.156 
04:10	25.8	20.9	25.8	84	21.6	4	9	270	0.00	30.154 
04:15	25.8	20.9	25.8	83	21.4	4	11	248	0.00	30.159 
04:20	25.8	25.8	25.8	83	21.4	3	9	270	0.00	30.158 
04:25	25.8	25.8	25.8	83	21.4	3	7	248	0.00	30.161 
04:30	25.8	25.8	25.8	83	21.4	3	9	248	0.00	30.151 
04:35	25.7	25.7	25.7	83	21.3	2	5	270	0.00	30.149 
04:40	25.7	25.7	25.7	84	21.5	3	7	248	0.00	30.164 
04:45	25.7	25.7	25.7	84	21.5	2	6	248	0.00	30.154 
04:50	25.7	25.7	25.7	84	21.5	2	5	248	0.00	30.157 
04:55	25.6	25.6	25.6	83	21.2	2	6	248	0.00	30.162 
05:00	25.6	25.6	25.6	83	21.2	2	4	270	0.00	30.162 
05:05	25.4	25.4	25.4	83	21.0	2	6	248	0.00	30.161 
05:10	25.4	25.4	25.4	84	21.3	2	5	248	0.00	30.162 
05:15	25.4	25.4	25.4	84	21.3	2	5	248	0.00	30.161 
05:20	25.4	25.4	25.4	84	21.3	1	4	248	0.00	30.159 
05:25	25.3	25.3	25.3	84	21.2	0	3	225	0.00	30.162 
05:30	25.3	25.3	25.3	84	21.2	2	5	248	0.00	30.154 
05:35	25.3	25.3	25.3	84	21.2	0	2	248	0.00	30.150 
05:40	25.3	25.3	25.3	85	21.4	0	3	248	0.00	30.150 
05:45	25.3	25.3	25.3	85	21.4	0	3	225	0.00	30.150 
05:50	25.3	25.3	25.3	85	21.4	1	5	225	0.00	30.150 
05:55	25.3	25.3	25.3	85	21.4	1	3	270	0.00	30.151 
06:00	25.4	25.4	25.4	85	21.5	1	5	270	0.00	30.155 
06:05	25.4	25.4	25.4	85	21.5	1	4	248	0.00	30.154 
06:10	25.4	25.4	25.4	85	21.5	2	5	248	0.00	30.155 
06:15	25.4	25.4	25.4	85	21.5	1	5	248	0.00	30.152 
06:20	25.4	25.4	25.4	85	21.5	1	5	248	0.00	30.153 
06:25	25.4	25.4	25.4	85	21.5	1	4	270	0.00	30.154 
06:30	25.4	25.4	25.4	86	21.8	1	4	248	0.00	30.154 
06:35	25.4	25.4	25.4	86	21.8	2	11	248	0.00	30.155 
06:40	25.4	25.4	25.4	86	21.8	1	5	248	0.00	30.162 
06:45	25.3	25.3	25.3	86	21.7	1	4	248	0.00	30.164 
06:50	25.4	25.4	25.4	86	21.8	2	5	248	0.00	30.166 
06:55	25.3	25.3	25.3	86	21.7	2	6	248	0.00	30.166 
07:00	25.3	25.3	25.3	86	21.7	2	7	248	0.00	30.168 
07:05	25.3	25.3	25.3	87	22.0	1	6	248	0.00	30.169 
07:10	25.3	25.3	25.3	87	22.0	1	3	248	0.00	30.172 
07:15	25.3	25.3	25.3	87	22.0	1	3	248	0.00	30.168 
07:20	25.3	25.3	25.3	87	22.0	0	3	248	0.00	30.165 
07:25	25.3	25.3	25.3	88	22.3	0	3	248	0.00	30.165 
07:30	25.3	25.3	25.3	88	22.3	0	1	248	0.00	30.165 
07:35	25.3	25.3	25.3	88	22.3	0	2	248	0.00	30.163 
07:40	25.3	25.3	25.3	88	22.3	0	2	248	0.00	30.161 
07:45	25.3	25.3	25.3	88	22.3	0	2	248	0.00	30.159 
07:50	25.3	25.3	25.3	89	22.5	0	1	248	0.00	30.161 
07:55	25.3	25.3	25.3	89	22.5	0	2	248	0.00	30.162 
08:00	25.3	25.3	25.3	89	22.5	0	3	248	0.00	30.162 
08:05	25.3	25.3	25.3	89	22.5	0	3	248	0.00	30.165 
08:10	25.3	25.3	25.3	90	22.8	0	1	248	0.00	30.165 
08:15	25.4	25.4	25.4	89	22.6	0	2	248	0.00	30.163 
08:20	25.4	25.4	25.4	89	22.6	0	1	248	0.00	30.163 
08:25	25.4	25.4	25.4	89	22.6	0	1	248	0.00	30.164 
08:30	25.4	25.4	25.4	89	22.6	0	1	248	0.00	30.165 
08:35	25.4	25.4	25.4	89	22.6	0	1	248	0.00	30.166 
08:40	25.4	25.4	25.4	89	22.6	0	1	248	0.00	30.170 
08:45	25.6	25.6	25.6	89	22.8	0	1	248	0.00	30.168 
08:50	25.6	25.6	25.6	89	22.8	0	2	248	0.00	30.171 
08:55	25.6	25.6	25.6	89	22.8	0	3	248	0.00	30.174 
09:00	25.6	25.6	25.6	89	22.8	0	1	248	0.00	30.171 
09:05	25.6	25.6	25.6	89	22.8	0	1	248	0.00	30.167 
09:10	25.7	25.7	25.7	89	22.9	0	3	248	0.00	30.166 
09:15	25.8	25.8	25.8	89	23.0	0	2	202	0.00	30.163 
09:20	25.8	25.8	25.8	89	23.0	1	5	180	0.00	30.160 
09:25	26.0	26.0	26.0	89	23.2	1	3	112	0.00	30.160 
09:30	26.1	26.1	26.1	88	23.0	1	5	68	0.00	30.160 
09:35	26.1	26.1	26.1	88	23.0	1	4	112	0.00	30.156 
09:40	26.3	26.3	26.3	88	23.2	1	3	112	0.00	30.157 
09:45	26.4	26.4	26.4	88	23.3	0	3	270	0.00	30.154 
09:50	26.4	26.4	26.4	87	23.1	0	2	270	0.00	30.154 
09:55	26.6	26.6	26.6	87	23.3	0	2	22	0.00	30.150 
10:00	26.7	26.7	26.7	87	23.4	1	3	68	0.00	30.148 
10:05	26.7	26.7	26.7	87	23.4	1	3	112	0.00	30.148 
10:10	26.9	26.9	26.9	87	23.6	1	4	112	0.00	30.146 
10:15	26.9	26.9	26.9	86	23.3	1	3	112	0.00	30.142 
10:20	26.9	26.9	26.9	86	23.3	2	9	90	0.00	30.133 
10:25	26.9	26.9	26.9	86	23.3	1	5	135	0.00	30.133 
10:30	27.2	27.2	27.2	86	23.6	0	3	135	0.00	30.132 
10:35	27.2	27.2	27.2	86	23.6	1	4	112	0.00	30.130 
10:40	27.3	27.3	27.3	85	23.4	2	5	90	0.00	30.129 
10:45	27.5	27.5	27.5	84	23.3	2	6	90	0.00	30.128 
10:50	27.5	27.5	27.5	84	23.3	1	5	90	0.00	30.131 
10:55	27.5	27.5	27.5	84	23.3	1	4	112	0.00	30.129 
11:00	27.5	27.5	27.5	84	23.3	1	5	45	0.00	30.126 
11:05	27.6	27.6	27.6	84	23.4	1	5	112	0.00	30.127 
11:10	27.8	27.8	27.8	83	23.3	2	5	90	0.00	30.125 
11:15	27.9	27.9	27.9	82	23.1	1	4	90	0.00	30.128 
11:20	28.1	28.1	28.1	82	23.3	1	5	22	0.00	30.129 
11:25	28.1	28.1	28.1	82	23.3	1	6	112	0.00	30.126 
11:30	28.2	28.2	28.2	83	23.7	1	3	112	0.00	30.119 
11:35	28.4	28.4	28.4	82	23.6	1	3	112	0.00	30.118 
11:40	28.4	28.4	28.4	81	23.3	2	6	90	0.00	30.116 
11:45	28.7	28.7	28.7	81	23.6	1	4	270	0.00	30.110 
11:50	29.0	29.0	29.0	79	23.3	1	4	270	0.00	30.105 
11:55	29.1	29.1	29.1	79	23.4	1	3	270	0.00	30.101 
12:00	29.1	29.1	29.1	78	23.1	2	5	90	0.00	30.099 
12:05	29.1	29.1	29.1	79	23.4	2	7	90	0.00	30.098 
12:10	29.3	29.3	29.3	79	23.6	1	3	90	0.00	30.098 
12:15	29.3	29.3	29.3	78	23.3	2	5	112	0.00	30.098 
12:20	29.3	29.3	29.3	78	23.3	2	5	90	0.00	30.097 
12:25	29.4	29.4	29.4	78	23.4	1	6	270	0.00	30.097 
12:30	29.4	29.4	29.4	78	23.4	1	5	292	0.00	30.097 
12:35	29.4	29.4	29.4	78	23.4	1	4	270	0.00	30.095 
12:40	29.7	29.7	29.7	78	23.7	1	4	90	0.00	30.094 
12:45	29.8	29.8	29.8	78	23.8	1	3	270	0.00	30.091 
12:50	30.1	30.1	30.1	78	24.1	1	3	248	0.00	30.086 
12:55	30.0	30.0	30.0	78	24.0	1	4	90	0.00	30.081 
13:00	30.0	30.0	30.0	78	24.0	1	3	112	0.00	30.079 
13:05	30.3	30.3	30.3	78	24.3	0	3	248	0.00	30.078 
13:10	30.6	30.6	30.6	76	24.0	1	4	248	0.00	30.078 
13:15	30.4	30.4	30.4	75	23.4	2	6	248	0.00	30.075 
13:20	30.4	30.4	30.4	76	23.8	1	4	248	0.00	30.069 
13:25	30.6	30.6	30.6	76	24.0	1	3	292	0.00	30.068 
13:30	30.7	30.7	30.7	76	24.0	1	2	112	0.00	30.065 
13:35	30.7	30.7	30.7	75	23.7	1	6	90	0.00	30.063 
13:40	30.7	30.7	30.7	75	23.7	2	7	90	0.00	30.060 
13:45	30.9	30.9	30.9	76	24.2	1	5	90	0.00	30.058 
13:50	31.3	31.3	31.3	76	24.6	1	3	248	0.00	30.055 
13:55	31.5	31.5	31.5	75	24.5	1	7	90	0.00	30.051 
14:00	31.3	31.3	31.3	75	24.3	2	10	90	0.00	30.051 
14:05	31.2	31.2	31.2	75	24.2	2	6	90	0.00	30.052 
14:10	31.2	31.2	31.2	75	24.2	2	4	248	0.00	30.051 
14:15	31.2	31.2	31.2	75	24.2	1	3	90	0.00	30.050 
14:20	31.3	31.3	31.3	75	24.3	1	3	112	0.00	30.046 
14:25	31.5	31.5	31.5	74	24.2	2	5	90	0.00	30.041 
14:30	31.8	31.8	31.8	74	24.5	1	4	248	0.00	30.035 
14:35	32.1	32.1	32.1	74	24.8	1	3	112	0.00	30.035 
14:40	32.2	32.2	32.2	73	24.5	2	5	112	0.00	30.034 
14:45	31.9	31.9	31.9	73	24.2	2	6	90	0.00	30.032 
14:50	31.6	31.6	31.6	73	24.0	2	5	112	0.00	30.030 
14:55	31.5	31.5	31.5	74	24.2	1	3	112	0.00	30.026 
15:00	31.8	31.8	31.8	74	24.5	1	4	90	0.00	30.023 
15:05	32.2	32.2	32.2	74	24.9	1	4	90	0.00	30.021 
15:10	32.2	32.2	32.2	73	24.5	2	4	90	0.00	30.021 
15:15	32.1	32.1	32.1	74	24.8	2	6	90	0.00	30.019 
15:20	31.9	31.9	31.9	74	24.6	2	6	90	0.00	30.019 
15:25	31.9	31.9	31.9	74	24.6	2	4	90	0.00	30.018 
15:30	32.2	32.2	32.2	74	24.9	2	5	112	0.00	30.020 
15:35	32.4	32.4	32.4	74	25.1	2	4	90	0.00	30.019 
15:40	32.2	32.2	32.2	75	25.2	1	4	90	0.00	30.019 
15:45	32.2	32.2	32.2	75	25.2	2	6	112	0.00	30.014 
15:50	32.4	32.4	32.4	74	25.1	1	4	90	0.00	30.015 
15:55	32.7	32.7	32.7	74	25.3	1	4	112	0.00	30.015 
16:00	32.7	32.7	32.7	74	25.3	1	3	112	0.00	30.016 
16:05	32.7	32.7	32.7	75	25.7	2	4	90	0.00	30.014 
16:10	32.5	32.5	32.5	75	25.5	1	3	135	0.00	30.008 
16:15	32.4	32.4	32.4	75	25.4	1	3	135	0.00	30.006 
16:20	32.1	32.1	32.1	74	24.8	2	7	112	0.00	30.008 
16:25	31.9	31.9	31.9	75	24.9	1	5	112	0.00	30.003 
16:30	31.8	31.8	31.8	76	25.1	2	5	112	0.00	30.004 
16:35	31.8	31.8	31.8	76	25.1	1	5	135	0.00	30.011 
16:40	31.9	31.9	31.9	76	25.2	1	3	135	0.00	30.007 
16:45	31.9	31.9	31.9	77	25.5	1	3	90	0.00	30.007 
16:50	31.9	31.9	31.9	77	25.5	1	3	112	0.00	30.006 
16:55	31.8	31.8	31.8	77	25.4	1	4	135	0.00	30.005 
17:00	31.8	31.8	31.8	77	25.4	1	3	90	0.00	30.006 
17:05	31.6	31.6	31.6	77	25.2	1	3	112	0.00	30.009 
17:10	31.6	31.6	31.6	78	25.5	0	2	112	0.00	30.010 
17:15	31.5	31.5	31.5	78	25.4	0	1	112	0.00	30.016 
17:20	31.3	31.3	31.3	78	25.3	0	1	112	0.00	30.017 
17:25	31.2	31.2	31.2	79	25.5	0	1	112	0.00	30.018 
17:30	31.0	31.0	31.0	79	25.3	0	1	112	0.00	30.019 
17:35	31.0	31.0	31.0	80	25.6	0	0	---	0.00	30.019 
17:40	31.0	31.0	31.0	80	25.6	0	0	---	0.00	30.020 
17:45	30.9	30.9	30.9	81	25.8	0	1	112	0.00	30.020 
17:50	30.9	30.9	30.9	81	25.8	0	1	112	0.00	30.021 
17:55	30.9	30.9	30.9	81	25.8	0	1	112	0.00	30.021 
18:00	30.9	30.9	30.9	81	25.8	0	1	112	0.00	30.020 
18:05	30.9	30.9	30.9	81	25.8	0	1	112	0.00	30.020 
18:10	31.0	31.0	31.0	82	26.2	0	1	112	0.00	30.021 
18:15	30.9	30.9	30.9	82	26.1	0	1	112	0.00	30.021 
18:20	31.0	31.0	31.0	82	26.2	0	1	112	0.00	30.020 
18:25	31.0	31.0	31.0	82	26.2	0	1	112	0.00	30.017 
18:30	31.0	31.0	31.0	83	26.5	1	2	112	0.00	30.020 
18:35	31.2	31.2	31.2	83	26.6	0	2	112	0.00	30.021 
18:40	31.3	31.3	31.3	83	26.7	0	2	112	0.00	30.019 
18:45	31.3	31.3	31.3	83	26.7	0	1	112	0.00	30.021 
18:50	31.3	31.3	31.3	83	26.7	1	2	112	0.00	30.020 
18:55	31.5	31.5	31.5	84	27.2	0	1	112	0.00	30.021 
19:00	31.5	31.5	31.5	84	27.2	0	1	112	0.00	30.021 
19:05	31.5	31.5	31.5	84	27.2	0	0	---	0.00	30.022 
19:10	31.5	31.5	31.5	84	27.2	0	1	112	0.00	30.028 
19:15	31.5	31.5	31.5	84	27.2	0	1	112	0.00	30.035 
19:20	31.5	31.5	31.5	84	27.2	0	1	112	0.00	30.036 
19:25	31.5	31.5	31.5	85	27.5	0	1	112	0.00	30.036 
19:30	31.5	31.5	31.5	85	27.5	0	1	112	0.00	30.037 
19:35	31.6	31.6	31.6	85	27.6	0	1	112	0.00	30.039 
19:40	31.6	31.6	31.6	85	27.6	0	0	---	0.00	30.042 
19:45	31.6	31.6	31.6	85	27.6	0	0	---	0.00	30.044 
19:50	31.6	31.6	31.6	85	27.6	0	0	---	0.00	30.043 
19:55	31.6	31.6	31.6	85	27.6	0	1	112	0.00	30.046 
20:00	31.6	31.6	31.6	86	27.9	0	1	112	0.00	30.045 
20:05	31.6	31.6	31.6	86	27.9	0	0	---	0.00	30.045 
20:10	31.8	31.8	31.8	86	28.1	0	1	112	0.00	30.044 
20:15	31.8	31.8	31.8	86	28.1	0	0	---	0.00	30.047 
20:20	31.8	31.8	31.8	86	28.1	0	0	---	0.00	30.042 
20:25	31.8	31.8	31.8	86	28.1	0	0	---	0.00	30.045 
20:30	31.8	31.8	31.8	86	28.1	0	0	---	0.00	30.044 
20:35	31.6	31.6	31.6	87	28.2	0	0	---	0.00	30.045 
20:40	31.6	31.6	31.6	87	28.2	0	0	---	0.00	30.046 
20:45	31.6	31.6	31.6	87	28.2	0	0	---	0.00	30.048 
20:50	31.6	31.6	31.6	87	28.2	0	0	---	0.00	30.045 
20:55	31.5	31.5	31.5	87	28.1	0	0	---	0.00	30.041 
21:00	31.5	31.5	31.5	87	28.1	0	0	---	0.00	30.041 
21:05	31.5	31.5	31.5	88	28.4	0	0	---	0.00	30.042 
21:10	31.5	31.5	31.5	88	28.4	0	0	---	0.00	30.043 
21:15	31.5	31.5	31.5	88	28.4	0	0	---	0.00	30.041 
21:20	31.5	31.5	31.5	88	28.4	0	0	---	0.00	30.039 
21:25	31.3	31.3	31.3	88	28.2	0	0	---	0.00	30.043 
21:30	31.3	31.3	31.3	88	28.2	0	0	---	0.00	30.045 
21:35	31.2	31.2	31.2	88	28.1	0	0	---	0.00	30.046 
21:40	31.0	31.0	31.0	88	27.9	0	0	---	0.00	30.041 
21:45	30.7	30.7	30.7	88	27.6	0	0	---	0.00	30.041 
21:50	30.4	30.4	30.4	88	27.3	0	0	---	0.00	30.044 
21:55	30.1	30.1	30.1	88	27.0	0	0	---	0.00	30.047 
22:00	29.7	29.7	29.7	88	26.6	0	0	---	0.00	30.049 
22:05	29.3	29.3	29.3	88	26.2	0	0	---	0.00	30.046 
22:10	29.0	29.0	29.0	88	25.9	0	0	---	0.00	30.040 
22:15	28.5	28.5	28.5	88	25.4	0	0	---	0.00	30.041 
22:20	28.1	28.1	28.1	88	25.0	0	0	---	0.00	30.044 
22:25	27.6	27.6	27.6	88	24.5	0	0	---	0.00	30.042 
22:30	27.3	27.3	27.3	88	24.2	0	0	---	0.00	30.044 
22:35	27.0	27.0	27.0	89	24.2	0	0	---	0.00	30.047 
22:40	26.9	26.9	26.9	89	24.1	0	0	---	0.00	30.047 
22:45	26.6	26.6	26.6	89	23.8	0	0	---	0.00	30.050 
22:50	26.4	26.4	26.4	89	23.6	0	0	---	0.00	30.049 
22:55	26.1	26.1	26.1	90	23.6	0	0	---	0.00	30.051 
23:00	25.8	25.8	25.8	90	23.3	0	0	---	0.00	30.050 
23:05	25.7	25.7	25.7	90	23.2	0	0	---	0.00	30.050 
23:10	25.6	25.6	25.6	90	23.1	0	0	---	0.00	30.053 
23:15	25.7	25.7	25.7	91	23.4	0	0	---	0.00	30.052 
23:20	25.7	25.7	25.7	91	23.4	0	0	---	0.00	30.052 
23:25	25.7	25.7	25.7	92	23.7	0	0	---	0.00	30.051 
23:30	25.8	25.8	25.8	92	23.8	0	0	---	0.00	30.051 
23:35	26.4	26.4	26.4	93	24.7	0	2	270	0.00	30.051 
23:40	27.0	27.0	27.0	93	25.3	0	1	270	0.00	30.048 
23:45	27.5	27.5	27.5	93	25.7	0	0	---	0.00	30.050 
23:50	27.8	27.8	27.8	93	26.0	0	1	270	0.00	30.052 
23:55	28.2	28.2	28.2	94	26.7	0	1	270	0.00	30.058 

CoCoRaHS
IN-AL-39
A2 Web Hosting
Creative Commons License
GoDaddy
Look for:

loaded 2017-12-12 07:35:59 • last modified 2010-11-18 10:43:29
Privacy PolicyDisclaimer
• wx.awcolley.com is powered by PmWiki v.2002016 •
• all content (unless otherwise noted) © 2017 A W Colley